createdAt,value
2023-02-25T00:01:29.078Z,3.99
2023-02-25T00:03:57.916Z,3.97
2023-02-25T00:06:25.654Z,4.01
2023-02-25T00:08:52.956Z,4.02
2023-02-25T00:11:20.560Z,3.97
2023-02-25T00:13:50.617Z,3.92
2023-02-25T00:16:18.433Z,3.88
2023-02-25T00:18:46.938Z,3.89
2023-02-25T00:21:16.667Z,3.80
2023-02-25T00:23:49.546Z,3.75
2023-02-25T00:26:17.985Z,3.69
2023-02-25T00:28:45.419Z,3.61
2023-02-25T00:31:15.792Z,3.59
2023-02-25T00:33:43.138Z,3.53
2023-02-25T00:36:15.208Z,3.59
2023-02-25T00:38:42.324Z,3.53
2023-02-25T00:41:11.964Z,3.51
2023-02-25T00:43:40.533Z,3.42
2023-02-25T00:46:07.337Z,3.41
2023-02-25T00:48:34.147Z,3.39
2023-02-25T00:51:06.089Z,3.29
2023-02-25T00:53:32.824Z,3.29
2023-02-25T00:56:01.525Z,3.36
2023-02-25T00:58:31.567Z,3.25
2023-02-25T01:00:58.326Z,3.32
2023-02-25T01:03:25.112Z,3.32
2023-02-25T01:05:52.069Z,3.33
2023-02-25T01:08:21.827Z,3.38
2023-02-25T01:10:48.903Z,3.34
2023-02-25T01:13:19.133Z,3.25
2023-02-25T01:15:46.012Z,3.30
2023-02-25T01:18:12.747Z,3.19
2023-02-25T01:20:39.692Z,3.23
2023-02-25T01:23:07.355Z,3.24
2023-02-25T01:25:34.458Z,3.23
2023-02-25T01:28:01.452Z,3.20
2023-02-25T01:30:28.770Z,3.21
2023-02-25T01:32:55.602Z,3.24
2023-02-25T01:35:22.354Z,3.19
2023-02-25T01:37:50.076Z,3.29
2023-02-25T01:40:17.854Z,3.23
2023-02-25T01:42:46.357Z,3.20
2023-02-25T01:45:19.564Z,3.16
2023-02-25T01:47:50.774Z,3.19
2023-02-25T01:50:23.965Z,3.21
2023-02-25T01:52:52.185Z,3.22
2023-02-25T01:55:19.066Z,3.22
2023-02-25T01:57:46.191Z,3.23
2023-02-25T02:00:16.463Z,3.27
2023-02-25T02:02:49.937Z,3.23
2023-02-25T02:05:17.092Z,3.26
2023-02-25T02:07:44.010Z,3.26
2023-02-25T02:10:11.557Z,3.24
2023-02-25T02:12:40.546Z,3.27
2023-02-25T02:15:11.364Z,3.28
2023-02-25T02:17:38.140Z,3.28
2023-02-25T02:20:25.601Z,3.28
2023-02-25T02:23:22.613Z,3.30
2023-02-25T02:25:52.903Z,3.29
2023-02-25T02:28:40.760Z,3.31
2023-02-25T02:31:28.526Z,3.38
2023-02-25T02:34:27.626Z,3.31
2023-02-25T02:37:23.718Z,3.38
2023-02-25T02:40:05.902Z,3.36
2023-02-25T02:42:39.584Z,3.32
2023-02-25T02:45:29.198Z,3.38
2023-02-25T02:48:03.357Z,3.42
2023-02-25T02:53:14.880Z,3.41
2023-02-25T02:55:47.984Z,3.37
2023-02-25T02:58:25.309Z,3.36
2023-02-25T03:00:59.154Z,3.39
2023-02-25T03:03:36.992Z,3.35
2023-02-25T03:06:09.457Z,3.38
2023-02-25T03:08:40.822Z,3.39
2023-02-25T03:11:07.501Z,3.33
2023-02-25T03:13:37.519Z,3.33
2023-02-25T03:16:07.669Z,3.41
2023-02-25T03:18:40.769Z,3.36
2023-02-25T03:21:18.180Z,3.45
2023-02-25T03:23:48.371Z,3.42
2023-02-25T03:26:43.580Z,3.37
2023-02-25T03:29:18.179Z,3.33
2023-02-25T03:32:02.362Z,3.27
2023-02-25T03:34:36.299Z,3.24
2023-02-25T03:37:15.852Z,3.13
2023-02-25T03:39:47.539Z,3.10
2023-02-25T03:42:19.691Z,3.04
2023-02-25T03:44:52.182Z,3.00
2023-02-25T03:47:20.900Z,3.00
2023-02-25T03:49:54.138Z,3.03
2023-02-25T03:52:25.090Z,3.03
2023-02-25T03:54:53.113Z,3.09
2023-02-25T03:57:21.213Z,3.02
2023-02-25T03:59:48.075Z,2.99
2023-02-25T04:02:16.687Z,3.00
2023-02-25T04:04:43.415Z,2.96
2023-02-25T04:07:10.153Z,2.99
2023-02-25T04:09:36.807Z,2.95
2023-02-25T04:12:03.939Z,2.94
2023-02-25T04:14:30.652Z,2.98
2023-02-25T04:16:57.372Z,2.96
2023-02-25T04:19:24.222Z,3.00
2023-02-25T04:21:50.959Z,2.98
2023-02-25T04:24:17.834Z,2.99
2023-02-25T04:26:44.593Z,2.97
2023-02-25T04:29:11.388Z,2.90
2023-02-25T04:31:38.344Z,3.02
2023-02-25T04:34:05.316Z,3.02
2023-02-25T04:36:36.272Z,3.00
2023-02-25T04:39:05.707Z,2.95
2023-02-25T04:41:35.384Z,2.96
2023-02-25T04:44:05.511Z,3.05
2023-02-25T04:46:37.643Z,3.03
2023-02-25T04:49:05.172Z,2.99
2023-02-25T04:51:31.984Z,3.02
2023-02-25T04:53:59.138Z,3.05
2023-02-25T04:56:26.659Z,3.02
2023-02-25T04:58:54.382Z,3.09
2023-02-25T05:01:21.263Z,3.13
2023-02-25T05:03:48.280Z,3.12
2023-02-25T05:06:15.445Z,3.10
2023-02-25T05:08:42.218Z,3.07
2023-02-25T05:11:08.953Z,3.10
2023-02-25T05:13:35.669Z,3.00
2023-02-25T05:16:12.460Z,3.06
2023-02-25T05:18:39.731Z,3.06
2023-02-25T05:21:12.330Z,3.03
2023-02-25T05:23:43.652Z,3.07
2023-02-25T05:26:11.417Z,2.95
2023-02-25T05:31:09.996Z,3.01
2023-02-25T05:33:37.818Z,2.98
2023-02-25T05:36:09.213Z,3.01
2023-02-25T05:38:37.059Z,2.96
2023-02-25T05:41:06.615Z,3.06
2023-02-25T05:43:33.703Z,2.99
2023-02-25T05:46:01.789Z,2.93
2023-02-25T05:48:29.199Z,2.93
2023-02-25T05:51:04.365Z,2.88
2023-02-25T05:53:31.766Z,2.84
2023-02-25T05:55:58.588Z,2.80
2023-02-25T05:58:26.642Z,2.79
2023-02-25T06:00:54.302Z,2.76
2023-02-25T06:03:22.143Z,2.74
2023-02-25T06:05:48.936Z,2.72
2023-02-25T06:08:16.317Z,2.75
2023-02-25T06:10:43.052Z,2.70
2023-02-25T06:13:11.419Z,2.64
2023-02-25T06:15:40.622Z,2.66
2023-02-25T06:18:08.629Z,2.67
2023-02-25T06:20:35.846Z,2.73
2023-02-25T06:23:03.773Z,2.68
2023-02-25T06:25:31.507Z,2.72
2023-02-25T06:28:00.688Z,2.88
2023-02-25T06:30:30.070Z,2.83
2023-02-25T06:32:57.766Z,2.89
2023-02-25T06:35:25.090Z,2.88
2023-02-25T06:37:57.082Z,2.94
2023-02-25T06:40:23.897Z,2.97
2023-02-25T06:42:51.255Z,3.02
2023-02-25T06:45:18.514Z,3.09
2023-02-25T06:47:45.264Z,3.08
2023-02-25T06:50:12.561Z,3.04
2023-02-25T06:55:07.110Z,3.15
2023-02-25T06:57:34.378Z,3.26
2023-02-25T07:00:01.216Z,3.28
2023-02-25T07:02:27.915Z,3.27
2023-02-25T07:08:07.207Z,3.29
2023-02-25T07:10:35.834Z,3.37
2023-02-25T07:13:02.688Z,3.50
2023-02-25T07:15:29.546Z,3.60
2023-02-25T07:17:56.402Z,3.53
2023-02-25T07:20:23.129Z,3.48
2023-02-25T07:22:49.803Z,3.54
2023-02-25T07:25:16.546Z,3.58
2023-02-25T07:27:44.941Z,3.61
2023-02-25T07:30:13.315Z,3.77
2023-02-25T07:32:41.201Z,3.78
2023-02-25T07:35:09.001Z,3.96
2023-02-25T07:37:35.762Z,4.01
2023-02-25T07:40:02.594Z,4.05
2023-02-25T07:42:30.037Z,3.92
2023-02-25T07:44:56.720Z,4.05
2023-02-25T07:47:23.463Z,4.12
2023-02-25T07:49:56.220Z,4.04
2023-02-25T07:52:23.030Z,4.13
2023-02-25T07:54:49.819Z,4.15
2023-02-25T07:57:16.531Z,4.10
2023-02-25T07:59:43.186Z,4.14
2023-02-25T08:02:11.855Z,4.04
2023-02-25T08:07:06.029Z,4.13
2023-02-25T08:09:33.428Z,4.01
2023-02-25T08:12:00.484Z,4.08
2023-02-25T08:14:27.829Z,3.92
2023-02-25T08:16:58.054Z,4.03
2023-02-25T08:19:24.823Z,4.11
2023-02-25T08:21:51.604Z,3.99
2023-02-25T08:24:20.804Z,3.87
2023-02-25T08:26:48.216Z,4.45
2023-02-25T08:29:15.519Z,4.62
2023-02-25T08:31:42.549Z,4.49
2023-02-25T08:34:09.727Z,4.56
2023-02-25T08:36:38.024Z,4.34
2023-02-25T08:39:04.787Z,4.70
2023-02-25T08:41:32.257Z,4.68
2023-02-25T08:44:01.693Z,4.38
2023-02-25T08:46:30.377Z,4.18
2023-02-25T08:48:58.486Z,4.25
2023-02-25T08:51:35.072Z,4.79
2023-02-25T08:54:04.271Z,4.99
2023-02-25T08:56:31.144Z,5.16
2023-02-25T08:58:57.894Z,5.49
2023-02-25T09:01:25.619Z,5.53
2023-02-25T09:03:53.306Z,5.38
2023-02-25T09:06:25.246Z,5.41
2023-02-25T09:08:52.695Z,5.43
2023-02-25T09:11:20.808Z,5.13
2023-02-25T09:13:48.018Z,5.14
2023-02-25T09:16:17.767Z,5.23
2023-02-25T09:18:49.386Z,4.94
2023-02-25T09:21:16.520Z,4.76
2023-02-25T09:23:44.049Z,4.96
2023-02-25T09:26:11.223Z,5.06
2023-02-25T09:28:37.975Z,4.73
2023-02-25T09:31:05.862Z,5.42
2023-02-25T09:33:34.112Z,5.33
2023-02-25T09:36:20.750Z,6.41
2023-02-25T09:38:50.111Z,6.02
2023-02-25T09:41:31.158Z,5.55
2023-02-25T09:44:20.489Z,4.89
2023-02-25T09:47:05.759Z,4.60
2023-02-25T09:52:41.305Z,4.73
2023-02-25T09:55:18.184Z,4.40
2023-02-25T09:58:03.329Z,4.34
2023-02-25T10:00:34.094Z,4.48
2023-02-25T10:03:36.705Z,4.55
2023-02-25T10:06:30.347Z,4.76
2023-02-25T10:09:03.245Z,4.64
2023-02-25T10:11:40.796Z,4.87
2023-02-25T10:14:23.311Z,4.94
2023-02-25T10:17:03.643Z,4.64
2023-02-25T10:22:20.145Z,4.63
2023-02-25T10:24:50.702Z,4.56
2023-02-25T10:27:26.279Z,4.58
2023-02-25T10:30:00.076Z,4.83
2023-02-25T10:32:31.814Z,4.87
2023-02-25T10:35:02.216Z,4.98
2023-02-25T10:37:33.974Z,4.80
2023-02-25T10:40:04.413Z,5.07
2023-02-25T10:42:31.987Z,5.28
2023-02-25T10:45:08.339Z,4.95
2023-02-25T10:50:23.110Z,5.31
2023-02-25T10:52:59.756Z,5.07
2023-02-25T10:55:34.073Z,4.79
2023-02-25T10:58:01.200Z,5.84
2023-02-25T11:00:32.986Z,6.26
2023-02-25T11:03:01.952Z,6.09
2023-02-25T11:05:45.302Z,6.60
2023-02-25T11:08:30.393Z,6.44
2023-02-25T11:11:20.161Z,6.38
2023-02-25T11:14:01.960Z,7.56
2023-02-25T11:16:31.564Z,8.00
2023-02-25T11:19:01.148Z,8.05
2023-02-25T11:21:36.575Z,7.49
2023-02-25T11:24:13.096Z,8.29
2023-02-25T11:26:41.418Z,7.16
2023-02-25T11:29:21.317Z,6.92
2023-02-25T11:31:59.990Z,6.55
2023-02-25T11:34:31.475Z,6.09
2023-02-25T11:40:01.691Z,4.52
2023-02-25T11:42:30.456Z,4.79
2023-02-25T11:45:04.796Z,4.77
2023-02-25T11:47:34.894Z,5.11
2023-02-25T11:50:30.013Z,5.43
2023-02-25T11:53:04.877Z,6.01
2023-02-25T11:55:40.779Z,6.34
2023-02-25T11:58:16.364Z,6.27
2023-02-25T12:00:47.487Z,5.88
2023-02-25T12:03:35.887Z,5.05
2023-02-25T12:06:29.051Z,3.89
2023-02-25T12:09:40.941Z,3.21
2023-02-25T12:12:41.612Z,2.96
2023-02-25T12:15:27.163Z,2.79
2023-02-25T12:18:16.683Z,2.76
2023-02-25T12:21:02.228Z,2.58
2023-02-25T12:23:38.220Z,2.88
2023-02-25T12:26:08.748Z,3.06
2023-02-25T12:31:19.205Z,3.12
2023-02-25T12:33:54.874Z,3.18
2023-02-25T12:36:40.925Z,3.48
2023-02-25T12:39:07.680Z,3.52
2023-02-25T12:41:40.972Z,3.59
2023-02-25T12:44:38.428Z,3.41
2023-02-25T12:47:17.828Z,3.57
2023-02-25T12:50:13.272Z,3.25
2023-02-25T12:52:40.949Z,3.33
2023-02-25T12:55:25.952Z,3.47
2023-02-25T12:57:59.027Z,3.47
2023-02-25T13:00:39.840Z,3.24
2023-02-25T13:03:35.368Z,3.41
2023-02-25T13:06:29.793Z,3.16
2023-02-25T13:09:32.024Z,2.81
2023-02-25T13:12:40.795Z,2.92
2023-02-25T13:15:36.578Z,3.00
2023-02-25T13:18:24.241Z,2.74
2023-02-25T13:21:05.630Z,2.71
2023-02-25T13:23:41.076Z,2.69
2023-02-25T13:26:40.816Z,2.92
2023-02-25T13:29:21.115Z,3.08
2023-02-25T13:32:09.881Z,2.85
2023-02-25T13:34:36.537Z,3.46
2023-02-25T13:37:40.863Z,3.62
2023-02-25T13:40:37.521Z,7.22
2023-02-25T13:43:22.429Z,8.71
2023-02-25T13:46:05.456Z,11.16
2023-02-25T13:48:41.354Z,10.82
2023-02-25T13:51:13.946Z,11.12
2023-02-25T13:54:02.563Z,12.13
2023-02-25T13:56:39.975Z,12.34
2023-02-25T14:02:34.544Z,10.52
2023-02-25T14:05:30.379Z,11.85
2023-02-25T14:08:15.708Z,10.56
2023-02-25T14:10:54.650Z,9.21
2023-02-25T14:13:40.905Z,7.45
2023-02-25T14:16:08.511Z,7.12
2023-02-25T14:18:35.196Z,6.49
2023-02-25T14:21:20.398Z,6.04
2023-02-25T14:24:00.425Z,5.61
2023-02-25T14:26:41.859Z,5.89
2023-02-25T14:29:30.105Z,5.75
2023-02-25T14:32:21.992Z,5.57
2023-02-25T14:34:56.399Z,5.11
2023-02-25T14:37:37.787Z,4.63
2023-02-25T14:40:07.638Z,4.46
2023-02-25T14:42:39.923Z,3.90
2023-02-25T14:45:09.779Z,3.43
2023-02-25T14:47:40.876Z,3.38
2023-02-25T14:50:18.976Z,3.13
2023-02-25T14:53:07.148Z,3.16
2023-02-25T14:55:41.181Z,2.91
2023-02-25T14:58:35.782Z,3.01
2023-02-25T15:01:18.294Z,3.05
2023-02-25T15:04:19.614Z,2.93
2023-02-25T15:07:08.036Z,3.15
2023-02-25T15:09:40.968Z,3.31
2023-02-25T15:12:25.904Z,3.20
2023-02-25T15:15:04.770Z,3.01
2023-02-25T15:17:40.878Z,3.17
2023-02-25T15:20:41.084Z,3.73
2023-02-25T15:23:17.042Z,3.77
2023-02-25T15:26:04.466Z,4.14
2023-02-25T15:28:31.134Z,7.53
2023-02-25T15:31:01.137Z,5.62
2023-02-25T15:33:34.899Z,4.58
2023-02-25T15:36:13.822Z,4.58
2023-02-25T15:38:46.875Z,4.22
2023-02-25T15:41:38.410Z,4.29
2023-02-25T15:44:11.460Z,4.01
2023-02-25T15:46:41.296Z,3.66
2023-02-25T15:49:10.740Z,3.76
2023-02-25T15:51:40.134Z,3.66
2023-02-25T15:54:09.242Z,3.59
2023-02-25T15:56:41.162Z,3.35
2023-02-25T15:59:08.108Z,3.29
2023-02-25T16:01:41.016Z,3.27
2023-02-25T16:04:42.353Z,3.28
2023-02-25T16:07:14.686Z,3.25
2023-02-25T16:09:49.721Z,3.22
2023-02-25T16:12:17.295Z,3.18
2023-02-25T16:14:44.868Z,3.12
2023-02-25T16:17:20.339Z,3.16
2023-02-25T16:19:53.752Z,3.08
2023-02-25T16:22:24.058Z,2.97
2023-02-25T16:24:56.560Z,3.00
2023-02-25T16:30:16.342Z,2.86
2023-02-25T16:33:13.968Z,2.81
2023-02-25T16:36:22.278Z,2.76
2023-02-25T16:39:05.880Z,2.63
2023-02-25T16:41:41.187Z,2.60
2023-02-25T16:44:11.605Z,2.57
2023-02-25T16:46:41.361Z,2.45
2023-02-25T16:49:18.321Z,2.34
2023-02-25T16:51:45.924Z,2.24
2023-02-25T16:54:23.369Z,2.18
2023-02-25T16:56:55.731Z,2.09
2023-02-25T16:59:25.720Z,2.02
2023-02-25T17:02:01.431Z,1.88
2023-02-25T17:04:31.607Z,1.91
2023-02-25T17:07:19.566Z,1.74
2023-02-25T17:09:52.480Z,1.89
2023-02-25T17:12:41.031Z,1.94
2023-02-25T17:15:13.929Z,1.86
2023-02-25T17:17:44.680Z,1.62
2023-02-25T17:20:29.864Z,1.87
2023-02-25T17:23:03.010Z,1.76
2023-02-25T17:25:37.493Z,1.72
2023-02-25T17:28:06.736Z,1.77
2023-02-25T17:30:41.394Z,1.75
2023-02-25T17:33:28.701Z,1.70
2023-02-25T17:36:10.067Z,1.50
2023-02-25T17:38:39.002Z,1.63
2023-02-25T17:41:05.650Z,1.47
2023-02-25T17:46:29.068Z,1.34
2023-02-25T17:49:06.220Z,1.48
2023-02-25T17:51:37.326Z,1.13
2023-02-25T17:54:20.932Z,1.34
2023-02-25T17:57:05.792Z,1.28
2023-02-25T18:02:35.750Z,1.44
2023-02-25T18:05:21.754Z,1.51
2023-02-25T18:07:57.930Z,1.56
2023-02-25T18:10:33.709Z,1.54
2023-02-25T18:13:02.757Z,1.60
2023-02-25T18:15:36.102Z,1.58
2023-02-25T18:18:05.892Z,1.63
2023-02-25T18:20:42.473Z,1.73
2023-02-25T18:23:15.976Z,1.71
2023-02-25T18:25:45.567Z,1.68
2023-02-25T18:28:15.979Z,1.73
2023-02-25T18:30:45.110Z,1.64
2023-02-25T18:33:11.954Z,1.70
2023-02-25T18:35:41.116Z,1.74
2023-02-25T18:38:17.265Z,1.73
2023-02-25T18:40:44.868Z,1.70
2023-02-25T18:43:19.878Z,1.60
2023-02-25T18:45:47.339Z,1.68
2023-02-25T18:48:14.238Z,1.60
2023-02-25T18:50:44.670Z,1.60
2023-02-25T18:53:17.258Z,1.54
2023-02-25T18:55:44.155Z,1.67
2023-02-25T18:58:15.729Z,1.61
2023-02-25T19:00:44.620Z,1.60
2023-02-25T19:03:15.955Z,1.69
2023-02-25T19:05:42.696Z,1.63
2023-02-25T19:08:15.136Z,1.58
2023-02-25T19:10:43.913Z,1.61
2023-02-25T19:13:16.455Z,1.54
2023-02-25T19:15:43.284Z,1.44
2023-02-25T19:18:14.699Z,1.49
2023-02-25T19:20:44.149Z,1.43
2023-02-25T19:23:13.677Z,1.36
2023-02-25T19:25:41.555Z,1.23
2023-02-25T19:28:09.014Z,1.26
2023-02-25T19:30:41.341Z,1.06
2023-02-25T19:33:10.031Z,1.04
2023-02-25T19:38:08.670Z,1.00
2023-02-25T19:40:36.630Z,1.07
2023-02-25T19:43:05.123Z,1.01
2023-02-25T19:45:32.649Z,0.98
2023-02-25T19:48:00.307Z,0.91
2023-02-25T19:50:28.101Z,0.88
2023-02-25T19:52:56.089Z,0.86
2023-02-25T19:55:23.108Z,0.87
2023-02-25T19:57:49.869Z,0.87
2023-02-25T20:00:26.665Z,0.91
2023-02-25T20:02:54.345Z,0.81
2023-02-25T20:05:22.237Z,0.77
2023-02-25T20:07:50.460Z,0.71
2023-02-25T20:10:17.746Z,0.70
2023-02-25T20:12:46.185Z,0.66
2023-02-25T20:15:14.815Z,0.65
2023-02-25T20:17:43.718Z,0.57
2023-02-25T20:20:11.724Z,0.52
2023-02-25T20:22:41.096Z,0.45
2023-02-25T20:25:10.146Z,0.46
2023-02-25T20:30:07.175Z,0.33
2023-02-25T20:32:35.554Z,0.39
2023-02-25T20:35:03.048Z,0.38
2023-02-25T20:37:37.490Z,0.35
2023-02-25T20:40:08.270Z,0.28
2023-02-25T20:42:35.499Z,0.27
2023-02-25T20:45:02.757Z,0.29
2023-02-25T20:47:35.144Z,0.22
2023-02-25T20:50:02.126Z,0.21
2023-02-25T20:52:32.357Z,0.38
2023-02-25T20:54:59.324Z,0.40
2023-02-25T20:57:27.148Z,0.42
2023-02-25T20:59:54.542Z,0.36
2023-02-25T21:02:22.755Z,0.32
2023-02-25T21:04:50.081Z,0.33
2023-02-25T21:07:17.521Z,0.36
2023-02-25T21:09:44.465Z,0.23
2023-02-25T21:12:11.686Z,0.32
2023-02-25T21:14:38.639Z,0.15
2023-02-25T21:17:09.682Z,0.28
2023-02-25T21:19:38.957Z,0.33
2023-02-25T21:22:06.621Z,0.38
2023-02-25T21:24:34.421Z,0.22
2023-02-25T21:27:01.628Z,0.13
2023-02-25T21:29:28.850Z,0.11
2023-02-25T21:31:56.080Z,0.08
2023-02-25T21:34:23.006Z,0.07
2023-02-25T21:36:49.890Z,0.01
2023-02-25T21:39:16.932Z,-0.05
2023-02-25T21:41:44.934Z,-0.07
2023-02-25T21:44:12.465Z,-0.20
2023-02-25T21:49:06.424Z,0.01
2023-02-25T21:51:36.224Z,-0.21
2023-02-25T21:54:03.915Z,-0.22
2023-02-25T21:56:31.287Z,-0.23
2023-02-25T21:59:01.121Z,-0.21
2023-02-25T22:01:33.800Z,-0.18
2023-02-25T22:04:00.687Z,-0.19
2023-02-25T22:06:28.214Z,-0.16
2023-02-25T22:08:56.752Z,-0.19
2023-02-25T22:11:26.440Z,-0.33
2023-02-25T22:13:53.302Z,-0.35
2023-02-25T22:16:22.957Z,-0.44
2023-02-25T22:18:51.139Z,-0.44
2023-02-25T22:21:23.862Z,-0.37
2023-02-25T22:23:52.870Z,-0.66
2023-02-25T22:26:25.642Z,-0.54
2023-02-25T22:28:57.553Z,-0.68
2023-02-25T22:31:25.226Z,-0.60
2023-02-25T22:33:52.870Z,-0.36
2023-02-25T22:36:20.368Z,-0.44
2023-02-25T22:38:48.907Z,-0.63
2023-02-25T22:41:21.714Z,-0.53
2023-02-25T22:43:49.974Z,-0.49
2023-02-25T22:46:31.799Z,-0.68
2023-02-25T22:48:59.429Z,-0.73
2023-02-25T22:51:29.045Z,-0.73
2023-02-25T22:53:56.903Z,-0.54
2023-02-25T22:56:24.483Z,-0.57
2023-02-25T22:58:51.681Z,-0.71
2023-02-25T23:01:20.789Z,-0.72
2023-02-25T23:03:48.541Z,-0.86
2023-02-25T23:06:17.127Z,-0.68
2023-02-25T23:08:46.549Z,-0.83
2023-02-25T23:11:19.581Z,-0.79
2023-02-25T23:13:48.867Z,-1.04
2023-02-25T23:16:18.378Z,-0.86
2023-02-25T23:18:47.018Z,-0.73
2023-02-25T23:21:19.812Z,-1.13
2023-02-25T23:23:48.877Z,-0.93
2023-02-25T23:26:20.186Z,-1.05
2023-02-25T23:28:47.919Z,-1.05
2023-02-25T23:31:26.218Z,-0.97
2023-02-25T23:34:02.287Z,-1.06
2023-02-25T23:36:29.822Z,-1.23
2023-02-25T23:38:58.329Z,-1.29
2023-02-25T23:41:25.989Z,-1.12
2023-02-25T23:43:58.750Z,-1.11
2023-02-25T23:46:27.694Z,-1.13
2023-02-25T23:49:00.111Z,-1.16
2023-02-25T23:51:28.998Z,-1.08
2023-02-25T23:54:01.041Z,-1.04
2023-02-25T23:56:29.254Z,-1.15
2023-02-25T23:58:56.411Z,-1.12
